Time;durP1;ratioP1;P1;durP2;ratioP2;P2;SDS_P1;SDS_P2;PMS_P1;PMS_P2;Temp;Humidity;BMP_temperature;BMP_pressure;BME280_temperature;BME280_humidity;BME280_pressure;Samples;Min_cycle;Max_cycle;Signal;HPM_P1;HPM_P2
2022/01/21 00:01:47;;;;;;;8.67;1.43;;;-0.10;99.90;;;;;;5074235;28;20138;-75
2022/01/21 00:04:14;;;;;;;8.60;1.17;;;-0.10;99.90;;;;;;5073972;28;20052;-75
2022/01/21 00:06:41;;;;;;;16.93;1.50;;;-0.10;99.90;;;;;;5073491;28;20139;-75
2022/01/21 00:09:11;;;;;;;9.00;1.43;;;-0.20;99.90;;;;;;5073567;28;20057;-75
2022/01/21 00:11:39;;;;;;;11.60;1.87;;;-0.20;99.90;;;;;;5073597;28;20131;-76
2022/01/21 00:14:07;;;;;;;8.93;1.50;;;-0.20;99.90;;;;;;5073267;28;20415;-74
2022/01/21 00:16:34;;;;;;;10.10;1.80;;;-0.30;99.90;;;;;;5073170;28;20048;-75
2022/01/21 00:19:07;;;;;;;11.37;1.67;;;-0.30;99.90;;;;;;5073124;28;20136;-75
2022/01/21 00:32:35;;;;;;;10.30;1.73;;;-0.40;99.90;;;;;;5073753;28;20055;-75
2022/01/21 00:35:03;;;;;;;14.07;2.33;;;-0.50;99.90;;;;;;5073316;28;20084;-74
2022/01/21 00:37:30;;;;;;;10.40;1.90;;;-0.60;99.90;;;;;;5074109;28;20087;-73
2022/01/21 00:40:00;;;;;;;11.10;1.77;;;-0.60;99.90;;;;;;5074228;28;20578;-73
2022/01/21 00:45:26;;;;;;;6.00;2.10;;;-0.40;99.90;;;;;;5109733;27;20805;-74
2022/01/21 00:47:56;;;;;;;9.80;1.70;;;-0.40;99.90;;;;;;5109655;28;20052;-74
2022/01/21 00:50:23;;;;;;;13.93;1.57;;;-0.40;99.90;;;;;;5109570;28;20048;-74
2022/01/21 00:52:50;;;;;;;8.73;1.70;;;-0.40;99.90;;;;;;5109308;28;20051;-73
2022/01/21 00:55:17;;;;;;;12.73;2.00;;;-0.40;99.90;;;;;;5109249;28;20084;-76
2022/01/21 00:57:43;;;;;;;5.30;1.23;;;-0.50;99.90;;;;;;5109513;28;20135;-74
2022/01/21 01:00:13;;;;;;;23.57;4.47;;;-0.50;99.90;;;;;;5109856;28;20131;-74
2022/01/21 01:02:41;;;;;;;9.30;1.60;;;-0.60;99.90;;;;;;5110938;28;20130;-74
2022/01/21 01:05:10;;;;;;;9.77;1.30;;;-0.80;99.90;;;;;;5111725;28;20083;-73
2022/01/21 01:07:37;;;;;;;10.10;1.60;;;-0.80;99.90;;;;;;5111319;28;20083;-73
2022/01/21 01:10:06;;;;;;;14.87;1.90;;;-0.80;99.90;;;;;;5110996;28;20327;-73
2022/01/21 01:12:48;;;;;;;14.27;2.07;;;-0.80;99.90;;;;;;5111353;28;20087;-74
2022/01/21 01:21:00;;;;;;;12.10;1.83;;;-0.80;99.90;;;;;;5047972;28;20131;-74
2022/01/21 01:23:37;;;;;;;10.60;1.47;;;-0.90;99.90;;;;;;5083520;28;20083;-74
2022/01/21 01:28:50;;;;;;;9.53;1.80;;;-0.80;99.90;;;;;;5110920;28;20126;-74
2022/01/21 01:31:16;;;;;;;9.60;1.70;;;-0.70;99.90;;;;;;5111013;28;20055;-75
2022/01/21 01:33:45;;;;;;;6.90;1.40;;;-0.70;99.90;;;;;;5111029;28;20120;-72
2022/01/21 01:36:12;;;;;;;9.90;2.10;;;-0.60;99.90;;;;;;5110696;28;20087;-73
2022/01/21 01:41:39;;;;;;;7.90;1.70;;;-0.60;99.90;;;;;;5066730;28;20040;-75
2022/01/21 01:49:37;;;;;;;7.20;1.80;;;-0.60;99.90;;;;;;5108674;28;20422;-75
2022/01/21 01:52:07;;;;;;;11.47;1.90;;;-0.70;99.90;;;;;;5108353;28;20502;-74
2022/01/21 01:54:37;;;;;;;12.53;2.60;;;-0.70;99.90;;;;;;5107699;28;20087;-74
2022/01/21 01:57:04;;;;;;;10.40;1.80;;;-0.80;99.90;;;;;;5094364;28;20144;-73
2022/01/21 01:59:31;;;;;;;11.77;2.37;;;-0.80;99.90;;;;;;5094926;28;20194;-75
2022/01/21 02:02:00;;;;;;;9.40;2.27;;;-0.90;99.90;;;;;;5095379;28;20175;-73
2022/01/21 02:04:28;;;;;;;12.60;2.63;;;-1.00;99.90;;;;;;5095133;28;20075;-74
2022/01/21 02:06:56;;;;;;;14.73;2.53;;;-1.00;99.90;;;;;;5095233;28;20087;-75
2022/01/21 02:09:23;;;;;;;14.47;2.13;;;-1.00;99.90;;;;;;5094627;28;20125;-75
2022/01/21 02:11:51;;;;;;;6.70;1.70;;;-1.00;99.90;;;;;;5094360;28;20127;-74
2022/01/21 02:14:22;;;;;;;12.37;2.70;;;-1.00;99.90;;;;;;5094705;28;20146;-74
2022/01/21 02:22:32;;;;;;;12.47;2.40;;;-1.00;99.90;;;;;;5094282;28;20104;-74
2022/01/21 02:25:15;;;;;;;;;;;-1.00;99.90;;;;;;5094688;28;20048;-73
2022/01/21 02:27:42;;;;;;;12.13;2.13;;;-1.00;99.90;;;;;;5094907;28;20375;-74
2022/01/21 02:30:17;;;;;;;9.73;2.17;;;-0.90;99.90;;;;;;5094307;28;20083;-73
2022/01/21 02:32:45;;;;;;;12.10;2.90;;;-1.00;99.90;;;;;;5094263;28;20129;-78
2022/01/21 02:35:12;;;;;;;9.83;2.17;;;-1.00;99.90;;;;;;5093999;28;20364;-74
2022/01/21 02:37:41;;;;;;;8.93;1.97;;;-0.90;99.90;;;;;;5094130;28;20101;-75
2022/01/21 02:40:09;;;;;;;9.03;2.20;;;-1.00;99.90;;;;;;5093813;28;20083;-73
2022/01/21 02:42:36;;;;;;;8.13;2.23;;;-1.00;99.90;;;;;;5093460;28;20139;-73
2022/01/21 02:45:05;;;;;;;9.07;1.93;;;-1.00;99.90;;;;;;5093457;28;20131;-74
2022/01/21 02:47:32;;;;;;;10.63;2.10;;;-1.00;99.90;;;;;;5093676;28;20084;-74
2022/01/21 02:49:59;;;;;;;15.47;2.67;;;-1.00;99.90;;;;;;5093660;28;20591;-74
2022/01/21 02:52:29;;;;;;;13.20;2.40;;;-1.10;99.90;;;;;;5093466;28;20079;-74
2022/01/21 02:54:57;;;;;;;15.03;2.63;;;-1.20;99.90;;;;;;5094160;28;20048;-73
2022/01/21 02:57:24;;;;;;;14.60;2.20;;;-1.10;99.90;;;;;;5093471;28;20135;-74
2022/01/21 02:59:51;;;;;;;14.23;2.20;;;-1.20;99.90;;;;;;5093465;28;20473;-73
2022/01/21 03:02:18;;;;;;;6.80;1.47;;;-1.10;99.90;;;;;;5093335;28;20048;-73
2022/01/21 03:04:54;;;;;;;9.13;2.00;;;-1.20;99.90;;;;;;5093250;28;20131;-75
2022/01/21 03:07:21;;;;;;;12.37;2.53;;;-1.20;99.90;;;;;;5092713;28;20088;-73
2022/01/21 03:09:48;;;;;;;11.70;3.30;;;-1.20;99.90;;;;;;5093382;28;20087;-74
2022/01/21 03:12:16;;;;;;;10.10;2.10;;;-1.20;99.90;;;;;;5093351;28;20131;-74
2022/01/21 03:14:43;;;;;;;10.43;2.20;;;-1.30;99.90;;;;;;5093221;28;20044;-74
2022/01/21 03:17:10;;;;;;;9.17;2.00;;;-1.30;99.90;;;;;;5093798;28;20048;-74
2022/01/21 03:19:37;;;;;;;9.93;2.20;;;-1.40;99.90;;;;;;5094584;28;20144;-74
2022/01/21 03:22:05;;;;;;;10.57;2.30;;;-1.50;99.90;;;;;;5094814;28;20135;-73
2022/01/21 03:24:32;;;;;;;13.43;2.20;;;-1.60;99.90;;;;;;5094235;28;20044;-74
2022/01/21 03:26:59;;;;;;;14.43;2.20;;;-1.50;99.90;;;;;;5093636;28;20135;-75
2022/01/21 03:29:27;;;;;;;11.00;2.20;;;-1.40;99.90;;;;;;5093220;28;20135;-74
2022/01/21 03:31:54;;;;;;;18.87;2.60;;;-1.40;99.90;;;;;;5092777;28;20496;-73
2022/01/21 03:34:21;;;;;;;10.33;2.60;;;-1.40;99.90;;;;;;5093080;28;20105;-76
2022/01/21 03:36:49;;;;;;;7.80;1.80;;;-1.40;99.90;;;;;;5092941;28;20123;-74
2022/01/21 03:39:16;;;;;;;15.10;3.67;;;-1.40;99.90;;;;;;5093033;28;20052;-72
2022/01/21 03:41:44;;;;;;;7.90;2.90;;;-1.50;99.90;;;;;;5092715;28;20143;-73
2022/01/21 03:44:10;;;;;;;8.33;1.80;;;-1.40;99.90;;;;;;5092573;28;20127;-75
2022/01/21 03:46:39;;;;;;;9.73;2.13;;;-1.40;99.90;;;;;;5092643;28;20051;-73
2022/01/21 03:49:08;;;;;;;9.00;2.40;;;-1.40;99.90;;;;;;5092897;28;20083;-73
2022/01/21 03:51:35;;;;;;;13.37;2.17;;;-1.50;99.90;;;;;;5092842;28;20052;-74
2022/01/21 03:54:02;;;;;;;13.77;2.53;;;-1.50;99.90;;;;;;5092402;28;20048;-73
2022/01/21 03:56:29;;;;;;;8.97;1.87;;;-1.60;99.90;;;;;;5092481;28;20559;-75
2022/01/21 04:01:28;;;;;;;16.97;2.80;;;-1.70;99.90;;;;;;5070591;28;20098;-70
2022/01/21 04:03:57;;;;;;;11.37;1.80;;;-1.80;99.90;;;;;;5072001;28;20053;-70
2022/01/21 04:06:24;;;;;;;11.00;1.70;;;-1.80;99.90;;;;;;5071682;28;20148;-70
2022/01/21 04:08:51;;;;;;;11.90;1.77;;;-1.80;99.90;;;;;;5072091;28;20055;-70
2022/01/21 04:11:18;;;;;;;7.00;1.63;;;-1.90;99.90;;;;;;5071836;28;20076;-70
2022/01/21 04:13:46;;;;;;;10.03;2.03;;;-1.90;99.90;;;;;;5071678;28;20084;-70
2022/01/21 04:16:13;;;;;;;16.53;2.20;;;-1.90;99.90;;;;;;5071606;28;20056;-70
2022/01/21 04:18:40;;;;;;;10.90;1.70;;;-1.90;99.90;;;;;;5071543;28;20135;-70
2022/01/21 04:21:08;;;;;;;9.00;1.47;;;-1.90;99.90;;;;;;5071749;28;20476;-70
2022/01/21 04:23:35;;;;;;;12.63;2.07;;;-2.00;99.90;;;;;;5071614;28;20048;-70
2022/01/21 04:26:02;;;;;;;6.57;1.53;;;-1.90;99.90;;;;;;5071442;28;20135;-70
2022/01/21 04:28:29;;;;;;;5.23;1.70;;;-1.90;99.90;;;;;;5071617;28;20161;-70
2022/01/21 04:30:57;;;;;;;17.23;3.00;;;-2.10;99.90;;;;;;5071737;28;20049;-70
2022/01/21 04:33:24;;;;;;;7.60;1.90;;;-2.10;99.90;;;;;;5071470;28;20316;-70
2022/01/21 04:35:50;;;;;;;10.77;2.30;;;-2.10;99.90;;;;;;5071488;28;20131;-70
2022/01/21 04:38:22;;;;;;;15.37;2.43;;;-2.00;99.90;;;;;;5071883;28;20127;-70
2022/01/21 04:40:56;;;;;;;13.20;2.40;;;-2.00;99.90;;;;;;5071729;28;20057;-70
2022/01/21 04:48:51;;;;;;;12.87;2.33;;;-2.10;99.90;;;;;;5071531;28;20420;-70
2022/01/21 04:51:21;;;;;;;11.90;2.20;;;-2.00;99.90;;;;;;5071139;28;20057;-70
2022/01/21 04:53:49;;;;;;;9.33;2.17;;;-2.00;99.90;;;;;;5071536;28;20059;-70
2022/01/21 04:56:17;;;;;;;9.17;2.10;;;-2.00;99.90;;;;;;5071518;28;20143;-70
2022/01/21 04:58:44;;;;;;;11.73;2.93;;;-2.10;99.90;;;;;;5071439;28;20104;-70
2022/01/21 05:01:12;;;;;;;10.47;2.60;;;-2.00;99.90;;;;;;5071281;28;20139;-70
2022/01/21 05:03:40;;;;;;;12.87;2.60;;;-2.10;99.90;;;;;;5071270;28;20390;-70
2022/01/21 05:06:08;;;;;;;14.13;2.57;;;-2.10;99.90;;;;;;5071022;28;20048;-70
2022/01/21 05:08:42;;;;;;;12.80;3.63;;;-2.20;99.90;;;;;;5071359;28;20482;-70
2022/01/21 05:11:13;;;;;;;16.77;2.63;;;-2.30;99.90;;;;;;5071309;28;20518;-70
2022/01/21 05:13:42;;;;;;;13.60;2.73;;;-2.30;99.90;;;;;;5071609;28;20444;-70
2022/01/21 05:16:28;;;;;;;12.03;2.73;;;-2.20;99.90;;;;;;5071263;28;20094;-70
2022/01/21 05:18:55;;;;;;;16.57;3.37;;;-2.10;99.90;;;;;;5071336;28;20052;-70
2022/01/21 05:21:22;;;;;;;10.17;2.60;;;-2.10;99.90;;;;;;5071232;28;20048;-70
2022/01/21 05:23:49;;;;;;;11.07;2.20;;;-2.10;99.90;;;;;;5071117;28;20059;-70
2022/01/21 05:26:17;;;;;;;17.17;2.40;;;-2.10;99.90;;;;;;5070720;28;20044;-70
2022/01/21 05:28:44;;;;;;;6.67;2.27;;;-2.10;99.90;;;;;;5070773;28;20135;-70
2022/01/21 05:31:11;;;;;;;9.83;2.40;;;-2.10;99.90;;;;;;5073187;28;20075;-70
2022/01/21 05:33:38;;;;;;;9.97;2.80;;;-2.20;99.90;;;;;;5074874;28;20118;-70
2022/01/21 05:36:05;;;;;;;9.03;1.60;;;-2.20;99.90;;;;;;5074451;28;20049;-70
2022/01/21 05:38:32;;;;;;;11.60;2.00;;;-2.30;99.90;;;;;;5074669;28;20084;-70
2022/01/21 05:40:59;;;;;;;16.33;2.53;;;-2.40;99.90;;;;;;5074659;28;20090;-70
2022/01/21 05:43:28;;;;;;;17.90;2.77;;;-2.40;99.90;;;;;;5074343;28;20084;-70
2022/01/21 05:48:39;;;;;;;11.20;2.13;;;-2.40;99.90;;;;;;5074701;28;20047;-70
2022/01/21 05:51:06;;;;;;;14.43;2.83;;;-2.40;99.90;;;;;;5074487;28;20136;-70
2022/01/21 05:53:33;;;;;;;13.67;1.97;;;-2.40;99.90;;;;;;5074304;28;20139;-70
2022/01/21 05:56:02;;;;;;;7.50;2.33;;;-2.50;99.90;;;;;;5074539;28;20474;-68
2022/01/21 05:58:30;;;;;;;3.07;1.30;;;-2.50;99.90;;;;;;5074311;28;20056;-68
2022/01/21 06:00:57;;;;;;;10.37;2.00;;;-2.50;99.90;;;;;;5074120;28;20051;-68
2022/01/21 06:03:24;;;;;;;13.00;2.00;;;-2.50;99.90;;;;;;5074205;28;20049;-70
2022/01/21 06:05:52;;;;;;;12.10;2.57;;;-2.50;99.90;;;;;;5074066;28;20139;-70
2022/01/21 06:08:19;;;;;;;10.43;1.87;;;-2.50;99.90;;;;;;5074718;28;20123;-70
2022/01/21 06:10:46;;;;;;;13.33;2.97;;;-2.60;99.90;;;;;;5074038;28;20084;-70
2022/01/21 06:13:15;;;;;;;13.43;2.53;;;-2.60;99.90;;;;;;5074157;28;20133;-70
2022/01/21 06:15:44;;;;;;;16.27;2.40;;;-2.50;99.90;;;;;;5073848;28;20060;-70
2022/01/21 06:18:11;;;;;;;16.93;3.13;;;-2.60;99.90;;;;;;5074042;28;20119;-70
2022/01/21 06:20:39;;;;;;;14.97;2.60;;;-2.70;99.90;;;;;;5073938;28;20478;-70
2022/01/21 06:23:06;;;;;;;17.73;2.73;;;-2.70;99.90;;;;;;5073673;28;20106;-70
2022/01/21 06:25:33;;;;;;;11.17;2.60;;;-2.80;99.90;;;;;;5073719;28;20080;-70
2022/01/21 06:28:00;;;;;;;19.23;3.03;;;-2.90;99.90;;;;;;5073699;28;20088;-70
2022/01/21 06:30:27;;;;;;;10.40;2.53;;;-2.80;99.90;;;;;;5073777;28;20135;-69
2022/01/21 06:32:55;;;;;;;11.40;2.77;;;-2.90;99.90;;;;;;5073898;28;20045;-69
2022/01/21 06:35:22;;;;;;;12.53;2.60;;;-2.90;99.90;;;;;;5073366;28;20139;-69
2022/01/21 06:37:49;;;;;;;15.53;2.60;;;-2.90;99.90;;;;;;5073872;28;20128;-69
2022/01/21 06:40:19;;;;;;;9.80;3.20;;;-2.90;99.90;;;;;;5073463;28;20575;-70
2022/01/21 06:42:46;;;;;;;8.57;2.80;;;-3.00;99.90;;;;;;5073340;28;20547;-69
2022/01/21 06:45:13;;;;;;;11.30;3.00;;;-3.00;99.90;;;;;;5073401;28;20087;-70
2022/01/21 06:47:40;;;;;;;15.93;3.70;;;-3.10;99.90;;;;;;5073383;28;20094;-69
2022/01/21 06:50:10;;;;;;;12.37;3.23;;;-3.10;99.90;;;;;;5073310;28;20133;-69
2022/01/21 06:52:37;;;;;;;14.03;3.20;;;-3.00;99.90;;;;;;5073580;28;20144;-69
2022/01/21 06:55:05;;;;;;;14.97;3.53;;;-3.00;99.90;;;;;;5073436;28;20095;-68
2022/01/21 06:57:37;;;;;;;16.57;3.27;;;-3.10;99.90;;;;;;5073701;28;20080;-68
2022/01/21 07:00:06;;;;;;;19.60;3.53;;;-3.00;99.90;;;;;;5073697;28;20064;-69
2022/01/21 07:02:33;;;;;;;16.90;4.57;;;-2.90;99.90;;;;;;5073266;28;20059;-69
2022/01/21 07:05:01;;;;;;;13.87;3.60;;;-3.00;99.90;;;;;;5073446;28;20473;-69
2022/01/21 07:07:29;;;;;;;10.27;3.33;;;-3.10;99.90;;;;;;5073408;28;20547;-68
2022/01/21 07:09:56;;;;;;;14.63;3.63;;;-3.00;99.90;;;;;;5073361;28;20062;-68
2022/01/21 07:12:23;;;;;;;13.03;4.00;;;-3.00;99.90;;;;;;5073222;28;20389;-68
2022/01/21 07:14:50;;;;;;;18.13;4.53;;;-3.00;99.90;;;;;;5072952;28;20049;-68
2022/01/21 07:17:17;;;;;;;12.23;4.67;;;-3.10;99.90;;;;;;5073418;28;20135;-68
2022/01/21 07:19:43;;;;;;;16.67;4.87;;;-3.00;99.90;;;;;;5073314;28;20084;-68
2022/01/21 07:22:10;;;;;;;20.67;4.37;;;-3.00;99.90;;;;;;5072961;28;20127;-68
2022/01/21 07:24:39;;;;;;;16.60;4.73;;;-2.90;99.90;;;;;;5072743;28;20044;-68
2022/01/21 07:27:06;;;;;;;15.40;4.77;;;-2.90;99.90;;;;;;5072667;28;20063;-68
2022/01/21 07:29:33;;;;;;;13.07;3.93;;;-2.90;99.90;;;;;;5072666;28;20091;-68
2022/01/21 07:32:00;;;;;;;15.17;4.30;;;-2.90;99.90;;;;;;5072677;28;20121;-68
2022/01/21 07:34:27;;;;;;;20.40;5.37;;;-2.80;99.90;;;;;;5072899;28;20131;-68
2022/01/21 07:36:56;;;;;;;18.73;5.93;;;-2.80;99.90;;;;;;5072771;28;20113;-69
2022/01/21 07:39:23;;;;;;;17.87;4.57;;;-2.70;99.90;;;;;;5072672;28;20556;-68
2022/01/21 07:42:05;;;;;;;15.10;4.20;;;-2.70;99.90;;;;;;5072629;28;20112;-68
2022/01/21 07:44:32;;;;;;;16.93;4.00;;;-2.60;99.90;;;;;;5084638;28;20106;-68
2022/01/21 07:46:59;;;;;;;15.50;4.63;;;-2.50;99.90;;;;;;5079584;28;20048;-68
2022/01/21 07:49:26;;;;;;;12.97;3.17;;;-2.20;99.90;;;;;;5079775;28;20060;-68
2022/01/21 07:51:53;;;;;;;14.83;3.53;;;-2.00;99.90;;;;;;5079108;28;20052;-68
2022/01/21 07:54:20;;;;;;;16.93;3.10;;;-1.70;99.90;;;;;;5078268;28;20135;-68
2022/01/21 07:56:46;;;;;;;14.00;3.47;;;-1.40;99.90;;;;;;5079469;28;20139;-70
2022/01/21 07:59:15;;;;;;;20.43;3.57;;;-1.20;99.90;;;;;;5079582;28;20116;-70
2022/01/21 08:01:43;;;;;;;12.43;3.03;;;-1.00;99.90;;;;;;5079432;28;20487;-70
2022/01/21 08:04:10;;;;;;;14.87;2.60;;;-0.90;99.90;;;;;;5079697;28;20113;-70
2022/01/21 08:06:38;;;;;;;17.70;5.27;;;-0.90;99.90;;;;;;5073522;28;20045;-70
2022/01/21 08:09:05;;;;;;;16.17;4.57;;;-0.90;99.90;;;;;;5071825;28;20080;-70
2022/01/21 08:11:32;;;;;;;19.43;4.57;;;-1.00;99.90;;;;;;5071983;28;20135;-70
2022/01/21 08:13:59;;;;;;;16.77;5.03;;;-1.30;99.90;;;;;;5073651;28;20567;-70
2022/01/21 08:16:28;;;;;;;12.97;4.63;;;-1.30;99.90;;;;;;5071852;28;20131;-70
2022/01/21 08:18:56;;;;;;;16.57;6.47;;;-1.30;99.90;;;;;;5072084;28;20084;-70
2022/01/21 08:21:23;;;;;;;16.77;5.13;;;-1.30;99.90;;;;;;5071652;28;20458;-70
2022/01/21 08:23:54;;;;;;;24.97;5.90;;;-1.00;99.90;;;;;;5071546;28;20140;-70
2022/01/21 08:26:23;;;;;;;18.50;5.33;;;-0.70;99.90;;;;;;5072379;28;20053;-70
2022/01/21 08:28:50;;;;;;;15.13;5.00;;;-0.40;99.90;;;;;;5072057;28;20087;-70
2022/01/21 08:31:17;;;;;;;16.00;3.80;;;-0.40;99.90;;;;;;5071882;28;20135;-70
2022/01/21 08:33:45;;;;;;;17.70;3.87;;;-0.10;99.90;;;;;;5071958;28;20045;-70
2022/01/21 08:36:12;;;;;;;15.00;4.27;;;0.00;99.90;;;;;;5071263;28;20135;-70
2022/01/21 08:38:39;;;;;;;18.50;4.83;;;0.10;99.90;;;;;;5071703;28;20131;-70
2022/01/21 08:41:07;;;;;;;18.53;4.93;;;0.00;99.90;;;;;;5071586;28;20131;-70
2022/01/21 08:43:34;;;;;;;22.07;4.53;;;-0.10;99.90;;;;;;5071870;28;20056;-69
2022/01/21 08:46:01;;;;;;;15.73;4.73;;;-0.10;99.90;;;;;;5071073;28;20604;-69
2022/01/21 08:48:28;;;;;;;15.30;4.40;;;0.00;99.90;;;;;;5071375;28;20136;-69
2022/01/21 08:50:57;;;;;;;19.53;5.40;;;0.10;99.90;;;;;;5071243;28;20087;-69
2022/01/21 08:53:41;;;;;;;29.63;10.70;;;-0.20;99.90;;;;;;5071571;28;20059;-69
2022/01/21 08:56:11;;;;;;;18.67;6.60;;;-0.40;99.90;;;;;;5071475;28;20056;-69
2022/01/21 08:58:39;;;;;;;16.80;5.63;;;-0.60;99.90;;;;;;5071699;28;20056;-69
2022/01/21 09:01:06;;;;;;;17.03;5.20;;;-0.60;99.90;;;;;;5071277;28;20139;-68
2022/01/21 09:03:33;;;;;;;13.70;4.73;;;-0.20;99.90;;;;;;5071153;28;20127;-69
2022/01/21 09:06:02;;;;;;;17.90;5.40;;;-0.10;99.90;;;;;;5072956;28;20132;-69
2022/01/21 09:08:30;;;;;;;13.73;5.23;;;0.00;99.90;;;;;;5075343;28;20501;-69
2022/01/21 09:10:59;;;;;;;12.10;4.23;;;-0.10;99.90;;;;;;5075088;28;20053;-69
2022/01/21 09:13:28;;;;;;;14.43;4.87;;;-0.20;99.90;;;;;;5075286;28;20147;-69
2022/01/21 09:15:58;;;;;;;13.57;4.20;;;0.00;99.90;;;;;;5075909;28;20056;-70
2022/01/21 09:18:32;;;;;;;14.90;4.90;;;0.10;99.90;;;;;;5075248;28;20053;-70
2022/01/21 09:21:01;;;;;;;15.33;5.10;;;-0.10;99.90;;;;;;5075321;28;20060;-70
2022/01/21 09:23:28;;;;;;;16.17;4.63;;;0.10;99.90;;;;;;5074807;28;20083;-70
2022/01/21 09:25:55;;;;;;;15.40;5.63;;;0.00;99.90;;;;;;5074710;28;20507;-70
2022/01/21 09:28:23;;;;;;;21.27;5.10;;;0.20;99.90;;;;;;5074854;28;20131;-70
2022/01/21 09:30:50;;;;;;;16.63;5.70;;;0.60;99.90;;;;;;5074653;28;20147;-69
2022/01/21 09:33:17;;;;;;;17.07;5.93;;;0.90;99.90;;;;;;5074913;28;20487;-69
2022/01/21 09:35:44;;;;;;;14.87;4.90;;;1.90;99.90;;;;;;5074666;28;20088;-69
2022/01/21 09:38:12;;;;;;;16.23;4.77;;;2.60;99.90;;;;;;5074819;28;20067;-69
2022/01/21 09:40:44;;;;;;;12.10;4.40;;;2.50;99.90;;;;;;5074722;28;20382;-69
2022/01/21 09:43:11;;;;;;;18.40;5.80;;;2.50;99.90;;;;;;5074548;28;20064;-69
2022/01/21 09:45:39;;;;;;;12.93;4.63;;;2.20;99.90;;;;;;5074387;28;20156;-69
2022/01/21 09:48:08;;;;;;;15.80;5.30;;;2.00;99.90;;;;;;5074705;28;20135;-69
2022/01/21 09:50:35;;;;;;;18.30;5.73;;;2.10;99.90;;;;;;5074861;28;20102;-69
2022/01/21 09:53:03;;;;;;;21.57;5.37;;;2.00;99.90;;;;;;5074998;28;20088;-69
2022/01/21 09:55:31;;;;;;;19.33;4.97;;;2.10;99.90;;;;;;5074148;28;20131;-69
2022/01/21 09:57:58;;;;;;;21.77;5.47;;;2.00;99.90;;;;;;5074396;28;20133;-69
2022/01/21 10:00:27;;;;;;;20.10;5.37;;;2.10;99.90;;;;;;5164634;22;20135;-76
2022/01/21 10:02:56;;;;;;;13.83;5.10;;;1.90;99.90;;;;;;5056883;28;20132;-75
2022/01/21 10:05:23;;;;;;;23.50;5.67;;;2.00;99.90;;;;;;5056973;28;20049;-75
2022/01/21 10:07:51;;;;;;;17.23;4.73;;;2.20;99.90;;;;;;5056543;28;20133;-75
2022/01/21 10:10:19;;;;;;;15.10;4.60;;;2.10;99.90;;;;;;5056700;28;20057;-76
2022/01/21 10:12:48;;;;;;;13.17;4.50;;;2.20;99.90;;;;;;5056610;28;20095;-75
2022/01/21 10:15:17;;;;;;;20.73;5.50;;;2.30;99.90;;;;;;5056729;28;20053;-75
2022/01/21 10:17:59;;;;;;;13.17;5.53;;;2.10;99.90;;;;;;5056525;28;20082;-77
2022/01/21 10:20:27;;;;;;;20.37;6.93;;;2.00;99.90;;;;;;5056635;28;20474;-76
2022/01/21 10:22:59;;;;;;;19.17;6.87;;;2.10;99.90;;;;;;5056169;28;20152;-75
2022/01/21 10:25:26;;;;;;;18.43;5.63;;;2.00;99.90;;;;;;5056293;28;20136;-75
2022/01/21 10:28:09;;;;;;;21.17;6.23;;;1.90;99.90;;;;;;5056573;28;20472;-78
2022/01/21 10:30:36;;;;;;;16.27;5.50;;;1.90;99.90;;;;;;5056408;28;20457;-76
2022/01/21 10:33:19;;;;;;;20.50;5.70;;;1.80;99.90;;;;;;5056009;28;20124;-75
2022/01/21 10:35:48;;;;;;;11.27;4.00;;;1.90;99.90;;;;;;5055862;28;20049;-75
2022/01/21 10:38:17;;;;;;;16.33;4.03;;;2.00;99.90;;;;;;5055260;28;20400;-74
2022/01/21 10:40:44;;;;;;;21.80;5.10;;;1.80;99.90;;;;;;5053661;28;20052;-75
2022/01/21 10:43:13;;;;;;;15.87;3.67;;;1.90;99.90;;;;;;5053403;28;20519;-74
2022/01/21 10:45:54;;;;;;;15.43;3.60;;;1.90;99.90;;;;;;5053139;28;20041;-77
2022/01/21 10:48:22;;;;;;;12.70;3.23;;;2.10;99.90;;;;;;5053530;28;20052;-75
2022/01/21 10:51:16;;;;;;;12.87;3.30;;;2.00;99.90;;;;;;5053847;28;20091;-74
2022/01/21 10:53:43;;;;;;;13.23;3.10;;;2.00;99.90;;;;;;5053244;28;20041;-77
2022/01/21 10:56:12;;;;;;;12.27;3.10;;;2.00;99.90;;;;;;5053167;28;20053;-75
2022/01/21 10:58:41;;;;;;;20.93;4.77;;;2.00;99.90;;;;;;5053070;28;20045;-76
2022/01/21 11:01:13;;;;;;;17.27;3.60;;;2.10;99.90;;;;;;5053061;28;20049;-75
2022/01/21 11:04:00;;;;;;;16.00;3.93;;;2.00;99.90;;;;;;5052942;28;20048;-74
2022/01/21 11:06:33;;;;;;;9.38;3.20;;;2.10;99.90;;;;;;5052922;28;20394;-74
2022/01/21 11:09:21;;;;;;;13.50;3.60;;;2.10;99.90;;;;;;5053252;28;20049;-74
2022/01/21 11:11:50;;;;;;;15.07;3.77;;;2.20;99.90;;;;;;5053215;28;20127;-74
2022/01/21 11:14:19;;;;;;;18.60;4.40;;;2.20;99.90;;;;;;5052887;28;20480;-74
2022/01/21 11:16:50;;;;;;;10.03;4.00;;;3.20;99.90;;;;;;5052363;28;20052;-74
2022/01/21 11:19:28;;;;;;;8.53;3.30;;;2.60;99.90;;;;;;5052982;28;20049;-75
2022/01/21 11:21:58;;;;;;;14.93;3.87;;;2.30;99.90;;;;;;5052895;28;20067;-75
2022/01/21 11:24:26;;;;;;;9.27;3.20;;;2.60;99.90;;;;;;5052942;28;20168;-74
2022/01/21 11:27:12;;;;;;;12.43;4.53;;;2.50;99.90;;;;;;5052263;28;20049;-75
2022/01/21 11:29:41;;;;;;;13.00;4.03;;;2.10;99.90;;;;;;5052084;28;20084;-75
2022/01/21 11:32:09;;;;;;;13.10;4.23;;;2.20;99.90;;;;;;5052309;28;20055;-74
2022/01/21 11:34:37;;;;;;;15.37;3.90;;;2.10;99.90;;;;;;5052392;28;20132;-74
2022/01/21 11:37:06;;;;;;;15.20;4.27;;;2.10;99.90;;;;;;5052304;28;20128;-74
2022/01/21 11:39:34;;;;;;;11.07;4.10;;;2.40;99.90;;;;;;5052242;28;20080;-74
2022/01/21 11:42:03;;;;;;;10.63;3.77;;;2.40;99.90;;;;;;5052156;28;20132;-75
2022/01/21 11:44:31;;;;;;;20.03;5.03;;;2.30;99.90;;;;;;5049545;28;20553;-75
2022/01/21 11:47:15;;;;;;;16.63;5.47;;;2.40;99.90;;;;;;5049902;28;20053;-75
2022/01/21 11:49:44;;;;;;;18.20;5.23;;;2.60;99.90;;;;;;5050388;28;20505;-75
2022/01/21 11:52:14;;;;;;;13.63;4.13;;;2.60;99.90;;;;;;5050027;28;20140;-74
2022/01/21 11:54:41;;;;;;;16.50;4.93;;;2.40;99.90;;;;;;5052085;28;20048;-76
2022/01/21 11:57:10;;;;;;;8.90;3.73;;;2.50;99.90;;;;;;5052675;28;20095;-75
2022/01/21 11:59:42;;;;;;;16.47;4.20;;;2.30;99.90;;;;;;5052136;28;20459;-75
2022/01/21 12:02:23;;;;;;;10.47;3.83;;;2.20;99.90;;;;;;5051852;28;20056;-74
2022/01/21 12:04:52;;;;;;;17.17;5.20;;;2.10;99.90;;;;;;5051654;28;20076;-75
2022/01/21 12:07:45;;;;;;;14.50;4.43;;;2.40;99.90;;;;;;5051917;28;20447;-74
2022/01/21 12:10:13;;;;;;;12.70;4.40;;;2.40;99.90;;;;;;5052631;28;20052;-73
2022/01/21 12:13:25;;;;;;;14.27;4.70;;;2.40;99.90;;;;;;5052755;28;20608;-74
2022/01/21 12:19:19;;;;;;;16.40;4.70;;;2.60;99.90;;;;;;5052605;28;20501;-75
2022/01/21 12:21:48;;;;;;;13.47;4.47;;;2.40;99.90;;;;;;5052520;28;20144;-75
2022/01/21 12:24:16;;;;;;;13.13;4.40;;;2.30;99.90;;;;;;5051958;28;20061;-75
2022/01/21 12:26:59;;;;;;;10.27;4.37;;;2.30;99.90;;;;;;5051445;28;20057;-75
2022/01/21 12:29:30;;;;;;;11.73;4.90;;;2.30;99.90;;;;;;5051866;28;20053;-74
2022/01/21 12:32:02;;;;;;;13.03;5.03;;;2.20;99.90;;;;;;5051577;28;20045;-75
2022/01/21 12:35:06;;;;;;;15.70;4.47;;;2.10;99.90;;;;;;5053345;28;20092;-75
2022/01/21 12:37:52;;;;;;;18.80;5.30;;;2.00;99.90;;;;;;5053400;28;20052;-74
2022/01/21 12:40:36;;;;;;;13.23;4.40;;;2.00;99.90;;;;;;5051383;28;20049;-75
2022/01/21 12:43:33;;;;;;;13.47;5.97;;;1.90;99.90;;;;;;5051339;28;20142;-76
2022/01/21 12:46:04;;;;;;;18.63;6.60;;;1.90;99.90;;;;;;5049329;28;20454;-75
2022/01/21 12:48:34;;;;;;;26.97;5.90;;;1.80;99.90;;;;;;5051574;28;20418;-74
2022/01/21 12:51:14;;;;;;;18.53;5.67;;;1.70;99.90;;;;;;5052746;28;20143;-75
2022/01/21 12:55:55;;;;;;;16.47;6.23;;;1.70;99.90;;;;;;5053746;28;20044;-76
2022/01/21 12:56:31;;;;;;;20.70;7.10;;;1.60;99.90;;;;;;5053642;28;20469;-73
2022/01/21 12:58:58;;;;;;;16.97;6.27;;;1.60;99.90;;;;;;5053835;28;20135;-74
2022/01/21 13:01:25;;;;;;;19.73;6.33;;;1.60;99.90;;;;;;5054620;28;20524;-75
2022/01/21 13:03:57;;;;;;;21.70;6.33;;;1.60;99.90;;;;;;5054357;28;20091;-74
2022/01/21 13:06:36;;;;;;;17.30;5.97;;;1.60;99.90;;;;;;5053014;28;20056;-75
2022/01/21 13:09:07;;;;;;;18.93;7.27;;;1.60;99.90;;;;;;5052530;28;20136;-77
2022/01/21 13:11:36;;;;;;;18.37;6.43;;;1.60;99.90;;;;;;5054217;28;20099;-75
2022/01/21 13:14:23;;;;;;;19.70;6.47;;;1.60;99.90;;;;;;5054509;28;20065;-74
2022/01/21 13:16:55;;;;;;;20.50;7.05;;;1.60;99.90;;;;;;5053516;28;20106;-77
2022/01/21 13:19:22;;;;;;;18.40;6.57;;;1.50;99.90;;;;;;5054198;28;20052;-76
2022/01/21 13:21:51;;;;;;;21.03;6.80;;;1.50;99.90;;;;;;5053975;28;20076;-75
2022/01/21 13:24:27;;;;;;;20.93;7.03;;;1.50;99.90;;;;;;5053811;28;20080;-76
2022/01/21 13:26:54;;;;;;;20.97;7.40;;;1.50;99.90;;;;;;5053581;28;20092;-75
2022/01/21 13:29:30;;;;;;;22.33;7.43;;;1.50;99.90;;;;;;5054117;28;20137;-76
2022/01/21 13:31:58;;;;;;;22.13;7.37;;;1.50;99.90;;;;;;5053710;28;20127;-77
2022/01/21 13:34:28;;;;;;;22.37;7.53;;;1.50;99.90;;;;;;5053987;28;20532;-77
2022/01/21 13:36:58;;;;;;;24.67;7.80;;;1.40;99.90;;;;;;5053671;28;20088;-75
2022/01/21 13:39:27;;;;;;;18.10;7.77;;;1.40;99.90;;;;;;5053584;28;20148;-76
2022/01/21 13:42:00;;;;;;;21.67;7.00;;;1.50;99.90;;;;;;5053479;28;20127;-77
2022/01/21 13:44:30;;;;;;;35.27;8.60;;;1.50;99.90;;;;;;5054326;28;20067;-76
2022/01/21 13:46:57;;;;;;;22.37;7.67;;;1.50;99.90;;;;;;5053593;28;20128;-76